createdAt,value
2023-02-24T00:00:32.302Z,2.17
2023-02-24T00:03:05.739Z,2.43
2023-02-24T00:05:39.185Z,2.23
2023-02-24T00:08:07.507Z,2.53
2023-02-24T00:10:37.503Z,2.20
2023-02-24T00:13:05.918Z,2.10
2023-02-24T00:15:34.027Z,2.07
2023-02-24T00:18:07.057Z,1.90
2023-02-24T00:20:35.782Z,2.23
2023-02-24T00:23:03.997Z,2.10
2023-02-24T00:25:32.246Z,1.70
2023-02-24T00:28:02.491Z,2.10
2023-02-24T00:30:32.850Z,1.90
2023-02-24T00:33:02.676Z,2.20
2023-02-24T00:35:30.994Z,1.87
2023-02-24T00:37:59.508Z,1.73
2023-02-24T00:40:30.291Z,1.43
2023-02-24T00:42:59.030Z,1.40
2023-02-24T00:45:30.754Z,1.47
2023-02-24T00:47:59.062Z,1.70
2023-02-24T00:50:27.335Z,1.70
2023-02-24T00:52:55.478Z,1.40
2023-02-24T00:55:23.662Z,1.60
2023-02-24T00:57:51.887Z,1.77
2023-02-24T01:00:20.747Z,1.63
2023-02-24T01:02:50.312Z,1.10
2023-02-24T01:05:18.533Z,1.50
2023-02-24T01:07:46.740Z,1.67
2023-02-24T01:10:14.900Z,2.10
2023-02-24T01:12:53.785Z,1.20
2023-02-24T01:15:23.212Z,2.00
2023-02-24T01:17:52.718Z,1.60
2023-02-24T01:20:21.011Z,1.50
2023-02-24T01:22:50.662Z,1.80
2023-02-24T01:25:20.536Z,1.30
2023-02-24T01:27:48.884Z,1.70
2023-02-24T01:30:18.654Z,1.53
2023-02-24T01:32:48.088Z,1.27
2023-02-24T01:35:18.575Z,1.47
2023-02-24T01:37:46.856Z,1.30
2023-02-24T01:40:20.896Z,1.50
2023-02-24T01:42:49.451Z,1.60
2023-02-24T01:45:19.610Z,1.60
2023-02-24T01:47:48.263Z,1.57
2023-02-24T01:50:21.563Z,1.70
2023-02-24T01:52:51.648Z,1.87
2023-02-24T01:55:22.685Z,1.30
2023-02-24T01:57:52.400Z,1.70
2023-02-24T02:00:36.945Z,1.30
2023-02-24T02:03:10.918Z,1.53
2023-02-24T02:05:41.229Z,2.23
2023-02-24T02:08:10.049Z,1.47
2023-02-24T02:10:39.639Z,1.53
2023-02-24T02:13:08.131Z,1.40
2023-02-24T02:15:39.236Z,1.40
2023-02-24T02:18:11.872Z,1.80
2023-02-24T02:20:55.675Z,1.10
2023-02-24T02:23:36.497Z,1.30
2023-02-24T02:26:18.714Z,1.23
2023-02-24T02:29:00.373Z,1.40
2023-02-24T02:31:46.513Z,1.07
2023-02-24T02:34:28.824Z,1.40
2023-02-24T02:36:59.915Z,1.87
2023-02-24T02:39:33.356Z,1.53
2023-02-24T02:42:07.291Z,1.30
2023-02-24T02:44:39.632Z,1.40
2023-02-24T02:47:13.156Z,1.23
2023-02-24T02:49:44.373Z,1.53
2023-02-24T02:52:17.743Z,1.10
2023-02-24T02:54:49.695Z,1.40
2023-02-24T02:57:20.390Z,1.10
2023-02-24T02:59:51.209Z,1.10
2023-02-24T03:02:21.148Z,1.50
2023-02-24T03:04:52.595Z,1.10
2023-02-24T03:07:21.716Z,1.13
2023-02-24T03:09:51.884Z,1.37
2023-02-24T03:12:21.974Z,1.30
2023-02-24T03:14:52.039Z,0.97
2023-02-24T03:17:22.241Z,1.90
2023-02-24T03:20:00.208Z,1.00
2023-02-24T03:22:34.587Z,1.30
2023-02-24T03:25:05.019Z,0.87
2023-02-24T03:27:36.080Z,0.97
2023-02-24T03:30:07.301Z,1.13
2023-02-24T03:32:43.813Z,1.10
2023-02-24T03:35:15.711Z,1.33
2023-02-24T03:37:43.890Z,0.90
2023-02-24T03:40:14.705Z,1.10
2023-02-24T03:42:45.225Z,1.03
2023-02-24T03:45:16.101Z,0.70
2023-02-24T03:47:45.564Z,1.00
2023-02-24T03:50:16.407Z,0.70
2023-02-24T03:52:47.419Z,0.67
2023-02-24T03:55:23.068Z,1.20
2023-02-24T03:58:00.971Z,1.00
2023-02-24T04:00:35.037Z,1.00
2023-02-24T04:03:08.073Z,0.90
2023-02-24T04:05:39.982Z,1.37
2023-02-24T04:08:09.453Z,0.97
2023-02-24T04:10:39.466Z,0.80
2023-02-24T04:13:11.742Z,0.90
2023-02-24T04:15:43.691Z,0.80
2023-02-24T04:18:15.612Z,1.17
2023-02-24T04:20:49.416Z,1.03
2023-02-24T04:23:19.540Z,1.17
2023-02-24T04:25:49.412Z,0.93
2023-02-24T04:28:18.828Z,1.30
2023-02-24T04:30:49.346Z,1.43
2023-02-24T04:33:17.583Z,1.43
2023-02-24T04:35:47.527Z,1.97
2023-02-24T04:38:15.972Z,1.90
2023-02-24T04:40:44.320Z,1.53
2023-02-24T04:43:12.962Z,1.97
2023-02-24T04:45:41.285Z,2.07
2023-02-24T04:48:12.955Z,2.03
2023-02-24T04:50:42.950Z,1.53
2023-02-24T04:53:13.229Z,2.10
2023-02-24T04:55:42.382Z,1.80
2023-02-24T04:58:12.400Z,1.87
2023-02-24T05:00:41.969Z,1.80
2023-02-24T05:03:11.954Z,1.97
2023-02-24T05:05:42.888Z,1.90
2023-02-24T05:08:15.790Z,2.20
2023-02-24T05:10:45.411Z,1.80
2023-02-24T05:13:14.902Z,2.03
2023-02-24T05:15:44.564Z,1.73
2023-02-24T05:18:14.806Z,1.90
2023-02-24T05:21:01.952Z,1.90
2023-02-24T05:23:34.101Z,1.80
2023-02-24T05:26:02.712Z,1.67
2023-02-24T05:28:31.927Z,2.07
2023-02-24T05:31:08.295Z,1.83
2023-02-24T05:33:37.737Z,2.00
2023-02-24T05:36:06.932Z,2.00
2023-02-24T05:38:38.238Z,1.55
2023-02-24T05:41:08.157Z,1.93
2023-02-24T05:43:39.277Z,2.00
2023-02-24T05:46:07.490Z,2.10
2023-02-24T05:48:35.927Z,2.23
2023-02-24T05:51:07.866Z,2.00
2023-02-24T05:53:41.262Z,1.70
2023-02-24T05:56:09.710Z,2.27
2023-02-24T05:58:39.345Z,1.93
2023-02-24T06:01:16.100Z,1.77
2023-02-24T06:03:48.036Z,2.37
2023-02-24T06:06:16.484Z,1.83
2023-02-24T06:08:50.314Z,1.63
2023-02-24T06:11:20.628Z,2.10
2023-02-24T06:13:49.320Z,1.80
2023-02-24T06:16:18.088Z,2.20
2023-02-24T06:18:49.386Z,1.90
2023-02-24T06:21:17.608Z,2.00
2023-02-24T06:23:47.116Z,1.83
2023-02-24T06:26:19.336Z,1.70
2023-02-24T06:28:48.183Z,1.73
2023-02-24T06:31:16.493Z,1.53
2023-02-24T06:33:44.981Z,1.70
2023-02-24T06:36:14.308Z,2.30
2023-02-24T06:38:42.939Z,1.90
2023-02-24T06:41:12.438Z,1.77
2023-02-24T06:43:41.094Z,2.30
2023-02-24T06:46:09.495Z,1.77
2023-02-24T06:48:39.013Z,1.67
2023-02-24T06:51:07.596Z,1.80
2023-02-24T06:53:36.280Z,1.90
2023-02-24T06:56:14.738Z,2.43
2023-02-24T06:58:45.678Z,2.40
2023-02-24T07:01:14.225Z,2.23
2023-02-24T07:03:47.776Z,2.23
2023-02-24T07:06:23.935Z,2.60
2023-02-24T07:08:53.060Z,2.00
2023-02-24T07:11:21.847Z,1.90
2023-02-24T07:13:53.863Z,2.70
2023-02-24T07:16:25.159Z,2.00
2023-02-24T07:18:56.583Z,1.47
2023-02-24T07:21:26.122Z,2.20
2023-02-24T07:23:58.740Z,2.33
2023-02-24T07:26:30.266Z,1.63
2023-02-24T07:29:04.245Z,2.77
2023-02-24T07:31:34.329Z,2.20
2023-02-24T07:34:02.664Z,2.40
2023-02-24T07:36:31.059Z,2.90
2023-02-24T07:39:01.553Z,1.87
2023-02-24T07:41:31.404Z,2.40
2023-02-24T07:44:03.182Z,2.30
2023-02-24T07:46:32.445Z,2.67
2023-02-24T07:49:01.557Z,3.73
2023-02-24T07:51:30.361Z,2.90
2023-02-24T07:54:00.111Z,2.67
2023-02-24T07:56:29.130Z,2.60
2023-02-24T07:59:00.145Z,2.43
2023-02-24T08:01:30.487Z,2.50
2023-02-24T08:04:01.290Z,1.50
2023-02-24T08:06:37.813Z,2.17
2023-02-24T08:09:18.235Z,2.40
2023-02-24T08:11:47.122Z,2.43
2023-02-24T08:14:15.898Z,2.20
2023-02-24T08:16:46.115Z,2.60
2023-02-24T08:19:20.091Z,2.70
2023-02-24T08:21:50.364Z,2.17
2023-02-24T08:24:19.016Z,2.30
2023-02-24T08:26:53.776Z,2.20
2023-02-24T08:29:21.941Z,2.17
2023-02-24T08:31:51.587Z,2.40
2023-02-24T08:34:19.847Z,2.23
2023-02-24T08:36:55.720Z,2.23
2023-02-24T08:39:23.941Z,2.50
2023-02-24T08:41:54.386Z,2.30
2023-02-24T08:44:22.904Z,2.37
2023-02-24T08:46:52.582Z,2.80
2023-02-24T08:49:24.719Z,2.80
2023-02-24T08:51:54.029Z,2.30
2023-02-24T08:54:27.232Z,2.30
2023-02-24T08:56:56.991Z,2.50
2023-02-24T08:59:39.376Z,2.43
2023-02-24T09:02:19.345Z,2.20
2023-02-24T09:04:48.240Z,3.50
2023-02-24T09:07:17.843Z,2.80
2023-02-24T09:09:46.802Z,3.27
2023-02-24T09:12:21.937Z,3.30
2023-02-24T09:14:50.870Z,3.83
2023-02-24T09:17:30.827Z,4.30
2023-02-24T09:20:44.222Z,3.87
2023-02-24T09:23:20.113Z,5.33
2023-02-24T09:25:54.346Z,5.37
2023-02-24T09:28:24.778Z,16.57
2023-02-24T09:30:56.982Z,22.70
2023-02-24T09:33:28.103Z,9.53
2023-02-24T09:36:09.722Z,16.27
2023-02-24T09:38:56.314Z,25.13
2023-02-24T09:41:32.930Z,58.90
2023-02-24T09:44:03.714Z,84.17
2023-02-24T09:46:36.247Z,127.93
2023-02-24T09:49:09.349Z,119.43
2023-02-24T09:51:42.250Z,142.57
2023-02-24T09:54:15.441Z,153.10
2023-02-24T09:56:45.748Z,143.20
2023-02-24T09:59:26.059Z,162.57
2023-02-24T10:02:02.095Z,233.97
2023-02-24T10:04:40.991Z,200.77
2023-02-24T10:07:12.594Z,206.27
2023-02-24T10:09:42.756Z,230.47
2023-02-24T10:12:17.106Z,264.47
2023-02-24T10:14:51.525Z,255.67
2023-02-24T10:17:24.080Z,246.50
2023-02-24T10:20:00.053Z,221.20
2023-02-24T10:22:50.316Z,204.83
2023-02-24T10:25:26.980Z,278.40
2023-02-24T10:28:02.007Z,224.03
2023-02-24T10:30:40.934Z,247.00
2023-02-24T10:33:20.455Z,239.73
2023-02-24T10:35:50.224Z,299.53
2023-02-24T10:38:18.423Z,308.77
2023-02-24T10:40:48.130Z,293.33
2023-02-24T10:43:20.586Z,276.30
2023-02-24T10:45:51.183Z,322.97
2023-02-24T10:48:40.140Z,361.80
2023-02-24T10:51:19.679Z,424.77
2023-02-24T10:53:53.295Z,358.20
2023-02-24T10:56:41.439Z,435.77
2023-02-24T10:59:29.911Z,449.67
2023-02-24T11:02:06.632Z,499.17
2023-02-24T11:04:54.154Z,452.80
2023-02-24T11:07:43.710Z,541.83
2023-02-24T11:10:14.465Z,583.60
2023-02-24T11:13:09.913Z,580.43
2023-02-24T11:15:57.099Z,670.60
2023-02-24T11:18:26.254Z,681.73
2023-02-24T11:20:55.726Z,688.97
2023-02-24T11:23:27.281Z,686.87
2023-02-24T11:25:58.169Z,667.00
2023-02-24T11:28:35.698Z,677.33
2023-02-24T11:31:08.719Z,627.33
2023-02-24T11:33:42.454Z,648.90
2023-02-24T11:36:14.434Z,678.53
2023-02-24T11:38:46.032Z,630.70
2023-02-24T11:41:19.061Z,649.13
2023-02-24T11:43:51.879Z,666.70
2023-02-24T11:46:22.695Z,642.33
2023-02-24T11:48:56.799Z,694.53
2023-02-24T11:51:26.062Z,704.53
2023-02-24T11:53:57.638Z,706.80
2023-02-24T11:56:28.374Z,730.87
2023-02-24T11:59:00.023Z,721.47
2023-02-24T12:01:31.663Z,738.83
2023-02-24T12:04:04.961Z,705.30
2023-02-24T12:06:36.475Z,731.03
2023-02-24T12:09:10.665Z,737.27
2023-02-24T12:11:44.570Z,745.23
2023-02-24T12:14:17.312Z,740.70
2023-02-24T12:16:48.098Z,770.13
2023-02-24T12:19:20.001Z,749.27
2023-02-24T12:21:50.974Z,772.40
2023-02-24T12:24:21.291Z,771.87
2023-02-24T12:26:56.278Z,737.93
2023-02-24T12:29:35.623Z,769.13
2023-02-24T12:32:16.277Z,770.83
2023-02-24T12:34:49.236Z,756.50
2023-02-24T12:37:30.161Z,765.90
2023-02-24T12:40:05.625Z,769.53
2023-02-24T12:42:37.148Z,762.03
2023-02-24T12:45:12.389Z,725.53
2023-02-24T12:47:46.201Z,701.93
2023-02-24T12:50:25.270Z,511.33
2023-02-24T12:53:00.468Z,461.67
2023-02-24T12:55:32.774Z,624.23
2023-02-24T12:58:04.121Z,686.67
2023-02-24T13:00:37.307Z,573.87
2023-02-24T13:03:10.872Z,228.33
2023-02-24T13:05:41.514Z,66.17
2023-02-24T13:08:18.950Z,48.33
2023-02-24T13:10:51.351Z,35.37
2023-02-24T13:13:23.544Z,26.03
2023-02-24T13:15:52.680Z,48.67
2023-02-24T13:18:27.372Z,35.20
2023-02-24T13:21:06.146Z,26.43
2023-02-24T13:23:34.599Z,9.87
2023-02-24T13:26:04.901Z,6.80
2023-02-24T13:28:35.990Z,10.23
2023-02-24T13:31:05.407Z,9.63
2023-02-24T13:33:34.900Z,7.50
2023-02-24T13:36:14.719Z,8.30
2023-02-24T13:38:44.330Z,7.90
2023-02-24T13:41:24.896Z,6.47
2023-02-24T13:43:57.906Z,4.40
2023-02-24T13:46:26.841Z,4.47
2023-02-24T13:49:09.904Z,6.53
2023-02-24T13:51:53.008Z,4.03
2023-02-24T13:54:27.431Z,3.67
2023-02-24T13:56:57.989Z,3.60
2023-02-24T13:59:32.314Z,2.50
2023-02-24T14:02:01.842Z,3.30
2023-02-24T14:04:31.322Z,3.07
2023-02-24T14:07:01.311Z,2.70
2023-02-24T14:09:32.341Z,2.73
2023-02-24T14:12:02.517Z,2.30
2023-02-24T14:14:31.546Z,3.70
2023-02-24T14:16:59.846Z,3.90
2023-02-24T14:19:28.095Z,3.30
2023-02-24T14:21:57.088Z,3.40
2023-02-24T14:24:25.780Z,3.30
2023-02-24T14:26:55.618Z,2.60
2023-02-24T14:29:26.582Z,4.07
2023-02-24T14:31:55.778Z,2.77
2023-02-24T14:34:25.241Z,2.43
2023-02-24T14:36:54.825Z,3.17
2023-02-24T14:39:24.392Z,2.13
2023-02-24T14:41:53.090Z,3.50
2023-02-24T14:44:22.869Z,2.87
2023-02-24T14:46:53.700Z,2.80
2023-02-24T14:49:24.094Z,2.70
2023-02-24T14:51:54.853Z,2.33
2023-02-24T14:54:25.668Z,2.20
2023-02-24T14:56:53.970Z,2.73
2023-02-24T14:59:26.370Z,2.57
2023-02-24T15:01:57.973Z,2.00
2023-02-24T15:04:32.547Z,1.80
2023-02-24T15:07:02.449Z,1.90
2023-02-24T15:09:34.891Z,1.90
2023-02-24T15:12:09.660Z,2.10
2023-02-24T15:14:38.106Z,2.00
2023-02-24T15:17:12.157Z,2.00
2023-02-24T15:19:44.165Z,2.00
2023-02-24T15:22:19.954Z,1.53
2023-02-24T15:24:48.186Z,1.70
2023-02-24T15:27:22.137Z,1.87
2023-02-24T15:30:00.713Z,1.33
2023-02-24T15:32:31.220Z,1.37
2023-02-24T15:34:59.651Z,1.73
2023-02-24T15:37:28.781Z,1.63
2023-02-24T15:40:04.204Z,1.70
2023-02-24T15:42:33.755Z,2.00
2023-02-24T15:45:02.651Z,1.40
2023-02-24T15:47:33.448Z,1.77
2023-02-24T15:50:01.641Z,1.60
2023-02-24T15:52:30.692Z,1.73
2023-02-24T15:55:00.446Z,1.80
2023-02-24T15:57:30.457Z,1.73
2023-02-24T15:59:58.709Z,1.70
2023-02-24T16:02:27.044Z,1.67
2023-02-24T16:04:56.598Z,1.70
2023-02-24T16:07:26.190Z,1.80
2023-02-24T16:09:55.700Z,2.40
2023-02-24T16:12:25.560Z,1.47
2023-02-24T16:14:55.882Z,1.60
2023-02-24T16:17:29.860Z,1.70
2023-02-24T16:20:00.578Z,1.63
2023-02-24T16:22:29.412Z,1.63
2023-02-24T16:24:57.589Z,2.23
2023-02-24T16:27:27.290Z,1.80
2023-02-24T16:29:55.500Z,2.00
2023-02-24T16:32:25.759Z,2.40
2023-02-24T16:34:54.117Z,2.10
2023-02-24T16:37:24.858Z,2.10
2023-02-24T16:39:53.066Z,2.00
2023-02-24T16:42:22.000Z,2.30
2023-02-24T16:44:50.425Z,2.00
2023-02-24T16:47:20.980Z,2.23
2023-02-24T16:49:49.185Z,2.30
2023-02-24T16:52:19.059Z,2.77
2023-02-24T16:54:48.696Z,2.20
2023-02-24T16:57:17.086Z,2.50
2023-02-24T16:59:45.269Z,2.70
2023-02-24T17:02:18.284Z,1.83
2023-02-24T17:04:46.519Z,2.57
2023-02-24T17:07:16.157Z,2.20
2023-02-24T17:09:44.369Z,2.10
2023-02-24T17:12:14.594Z,2.43
2023-02-24T17:14:42.827Z,2.33
2023-02-24T17:17:11.645Z,2.77
2023-02-24T17:19:40.280Z,1.50
2023-02-24T17:22:08.490Z,1.63
2023-02-24T17:24:36.714Z,1.63
2023-02-24T17:27:04.878Z,1.77
2023-02-24T17:29:34.375Z,2.10
2023-02-24T17:32:02.666Z,2.20
2023-02-24T17:34:30.943Z,4.20
2023-02-24T17:36:59.122Z,4.93
2023-02-24T17:39:27.452Z,5.77
2023-02-24T17:41:56.721Z,3.10
2023-02-24T17:44:24.876Z,2.27
2023-02-24T17:46:54.442Z,1.70
2023-02-24T17:49:22.706Z,1.13
2023-02-24T17:51:50.845Z,1.40
2023-02-24T17:54:19.113Z,1.33
2023-02-24T17:56:47.280Z,1.70
2023-02-24T17:59:15.446Z,2.23
2023-02-24T18:01:43.581Z,2.40
2023-02-24T18:04:14.637Z,2.43
2023-02-24T18:06:42.845Z,2.30
2023-02-24T18:09:11.165Z,2.60
2023-02-24T18:11:39.367Z,2.57
2023-02-24T18:14:07.666Z,2.10
2023-02-24T18:16:35.966Z,1.63
2023-02-24T18:19:04.295Z,2.30
2023-02-24T18:21:33.888Z,2.13
2023-02-24T18:24:02.637Z,2.57
2023-02-24T18:26:30.916Z,2.83
2023-02-24T18:28:59.427Z,2.10
2023-02-24T18:31:28.645Z,2.43
2023-02-24T18:33:57.651Z,2.33
2023-02-24T18:36:26.151Z,3.37
2023-02-24T18:38:56.007Z,3.87
2023-02-24T18:41:24.441Z,2.80
2023-02-24T18:43:53.330Z,3.60
2023-02-24T18:46:22.631Z,3.10
2023-02-24T18:48:51.345Z,4.37
2023-02-24T18:51:20.587Z,4.40
2023-02-24T18:53:51.392Z,4.20
2023-02-24T18:56:23.539Z,3.60
2023-02-24T18:58:52.677Z,3.83
2023-02-24T19:01:21.972Z,3.37
2023-02-24T19:03:50.544Z,3.73
2023-02-24T19:06:20.718Z,3.23
2023-02-24T19:08:50.235Z,3.10
2023-02-24T19:11:19.668Z,2.47
2023-02-24T19:13:49.363Z,3.13
2023-02-24T19:16:18.166Z,3.10
2023-02-24T19:18:47.906Z,20.27
2023-02-24T19:21:16.022Z,10.43
2023-02-24T19:23:44.171Z,3.90
2023-02-24T19:26:16.398Z,3.93
2023-02-24T19:28:44.575Z,3.67
2023-02-24T19:31:18.506Z,3.53
2023-02-24T19:33:46.856Z,3.53
2023-02-24T19:36:15.052Z,2.93
2023-02-24T19:38:43.235Z,3.47
2023-02-24T19:41:11.449Z,3.50
2023-02-24T19:43:41.743Z,3.50
2023-02-24T19:46:10.510Z,3.50
2023-02-24T19:48:40.829Z,3.30
2023-02-24T19:51:10.254Z,3.20
2023-02-24T19:53:38.432Z,2.83
2023-02-24T19:56:06.803Z,3.90
2023-02-24T19:58:35.767Z,3.33
2023-02-24T20:01:09.215Z,3.60
2023-02-24T20:03:37.706Z,3.33
2023-02-24T20:06:08.051Z,3.30
2023-02-24T20:08:36.940Z,4.40
2023-02-24T20:11:06.394Z,3.40
2023-02-24T20:13:34.554Z,3.93
2023-02-24T20:16:06.479Z,3.90
2023-02-24T20:18:34.753Z,3.43
2023-02-24T20:21:03.586Z,4.20
2023-02-24T20:23:33.438Z,3.40
2023-02-24T20:26:02.115Z,3.50
2023-02-24T20:28:30.377Z,4.10
2023-02-24T20:30:59.406Z,3.70
2023-02-24T20:33:27.840Z,3.67
2023-02-24T20:35:56.066Z,2.70
2023-02-24T20:38:24.324Z,2.83
2023-02-24T20:41:00.428Z,2.03
2023-02-24T20:43:29.184Z,2.53
2023-02-24T20:45:57.461Z,2.17
2023-02-24T20:48:25.700Z,2.20
2023-02-24T20:50:53.882Z,1.87
2023-02-24T20:53:22.040Z,2.40
2023-02-24T20:55:50.228Z,2.30
2023-02-24T20:58:19.801Z,4.80
2023-02-24T21:00:47.967Z,2.60
2023-02-24T21:03:17.693Z,2.70
2023-02-24T21:05:45.910Z,13.37
2023-02-24T21:08:14.164Z,3.20
2023-02-24T21:10:45.297Z,10.90
2023-02-24T21:13:13.785Z,3.60
2023-02-24T21:15:50.476Z,3.27
2023-02-24T21:18:18.742Z,4.53
2023-02-24T21:20:47.053Z,3.60
2023-02-24T21:23:15.447Z,4.67
2023-02-24T21:25:43.803Z,3.87
2023-02-24T21:28:12.285Z,2.57
2023-02-24T21:30:44.347Z,2.83
2023-02-24T21:33:12.870Z,2.07
2023-02-24T21:35:41.272Z,4.57
2023-02-24T21:38:09.588Z,3.93
2023-02-24T21:40:38.295Z,3.20
2023-02-24T21:43:06.805Z,3.07
2023-02-24T21:45:35.522Z,3.60
2023-02-24T21:48:06.534Z,4.03
2023-02-24T21:50:34.842Z,3.37
2023-02-24T21:53:03.029Z,2.23
2023-02-24T21:55:31.301Z,4.97
2023-02-24T21:57:59.566Z,3.60
2023-02-24T22:00:28.595Z,3.20
2023-02-24T22:02:57.186Z,3.50
2023-02-24T22:05:27.606Z,2.40
2023-02-24T22:07:56.989Z,3.03
2023-02-24T22:10:25.314Z,2.67
2023-02-24T22:12:57.297Z,2.20
2023-02-24T22:15:25.536Z,3.97
2023-02-24T22:17:53.860Z,3.13
2023-02-24T22:20:22.128Z,2.80
2023-02-24T22:22:51.635Z,3.03
2023-02-24T22:25:19.889Z,3.20
2023-02-24T22:27:48.174Z,2.63
2023-02-24T22:30:16.546Z,2.33
2023-02-24T22:32:44.851Z,5.07
2023-02-24T22:35:13.035Z,2.80
2023-02-24T22:37:41.265Z,4.23
2023-02-24T22:40:11.611Z,3.57
2023-02-24T22:42:40.506Z,3.53
2023-02-24T22:45:09.674Z,6.47
2023-02-24T22:47:38.005Z,6.20
2023-02-24T22:50:06.594Z,6.40
2023-02-24T22:52:34.755Z,6.53
2023-02-24T22:55:02.894Z,3.40
2023-02-24T22:57:34.810Z,3.83
2023-02-24T23:00:04.055Z,4.03
2023-02-24T23:02:32.215Z,5.60
2023-02-24T23:05:00.411Z,4.00
2023-02-24T23:07:28.718Z,5.40
2023-02-24T23:09:56.963Z,3.03
2023-02-24T23:12:25.415Z,3.90
2023-02-24T23:14:54.934Z,3.47
2023-02-24T23:17:24.133Z,3.60
2023-02-24T23:19:52.319Z,4.57
2023-02-24T23:22:20.584Z,2.97
2023-02-24T23:24:50.772Z,3.97
2023-02-24T23:27:21.105Z,2.67
2023-02-24T23:29:49.367Z,3.20
2023-02-24T23:32:19.011Z,3.00
2023-02-24T23:34:47.251Z,4.47
2023-02-24T23:37:16.617Z,4.30
2023-02-24T23:39:44.834Z,3.63
2023-02-24T23:42:13.907Z,3.63
2023-02-24T23:44:42.042Z,3.10
2023-02-24T23:47:10.253Z,3.10
2023-02-24T23:49:48.211Z,5.33
2023-02-24T23:52:16.868Z,2.97
2023-02-24T23:54:45.058Z,3.20
2023-02-24T23:57:13.217Z,2.67
2023-02-24T23:59:41.458Z,3.30
